Time;durP1;ratioP1;P1;durP2;ratioP2;P2;SDS_P1;SDS_P2;PMS_P1;PMS_P2;Temp;Humidity;BMP_temperature;BMP_pressure;BME280_temperature;BME280_humidity;BME280_pressure;Samples;Min_cycle;Max_cycle;Signal;HPM_P1;HPM_P2
2023/09/28 00:01:38;;;;;;;0.40;0.30;;;;;;;20.21;63.33;95463.31;5088869;28;20470;-58
2023/09/28 00:04:06;;;;;;;0.60;0.30;;;;;;;19.83;64.07;95443.72;5112947;28;20443;-58
2023/09/28 00:06:35;;;;;;;0.97;0.33;;;;;;;20.05;64.24;95481.91;5113054;28;20446;-58
2023/09/28 00:09:03;;;;;;;0.70;0.70;;;;;;;20.06;63.45;95464.63;5111940;28;20443;-58
2023/09/28 00:11:33;;;;;;;0.40;0.30;;;;;;;20.16;63.54;95469.66;5112261;28;20439;-58
2023/09/28 00:14:01;;;;;;;0.40;0.30;;;;;;;20.27;62.23;95473.59;5112498;28;20443;-58
2023/09/28 00:16:29;;;;;;;0.40;0.27;;;;;;;20.01;63.20;95472.13;5112965;28;20482;-57
2023/09/28 00:18:56;;;;;;;2.00;0.73;;;;;;;20.05;62.34;95473.84;5112903;28;20440;-58
2023/09/28 00:21:25;;;;;;;0.40;0.30;;;;;;;19.92;62.94;95468.69;5112319;28;20435;-57
2023/09/28 00:23:54;;;;;;;0.97;0.70;;;;;;;19.80;62.55;95477.44;5112029;28;20523;-57
2023/09/28 00:26:23;;;;;;;0.40;0.27;;;;;;;19.87;62.58;95474.25;5112603;28;20478;-57
2023/09/28 00:28:51;;;;;;;0.50;0.40;;;;;;;19.87;61.54;95472.34;5112398;28;20500;-57
2023/09/28 00:31:20;;;;;;;0.70;0.40;;;;;;;19.97;60.90;95471.97;5112493;27;20444;-57
2023/09/28 00:33:48;;;;;;;0.50;0.40;;;;;;;20.03;60.05;95467.22;5112005;28;20489;-57
2023/09/28 00:36:16;;;;;;;0.40;0.20;;;;;;;20.05;60.22;95471.16;5112281;28;20876;-57
2023/09/28 00:38:47;;;;;;;0.40;0.30;;;;;;;19.78;59.79;95419.72;5112121;28;20435;-57
2023/09/28 00:41:15;;;;;;;0.50;0.40;;;;;;;20.13;59.53;95467.63;5111966;28;20982;-57
2023/09/28 00:43:44;;;;;;;0.40;0.20;;;;;;;20.04;61.09;95469.56;5112011;28;20821;-57
2023/09/28 00:46:16;;;;;;;0.40;0.20;;;;;;;19.98;61.09;95465.50;5112339;28;20458;-58
2023/09/28 00:48:55;;;;;;;0.40;0.30;;;;;;;19.90;61.78;95469.00;5112576;28;20443;-58
2023/09/28 00:51:25;;;;;;;0.40;0.30;;;;;;;19.75;60.49;95448.03;5111556;28;20431;-58
2023/09/28 00:53:56;;;;;;;0.40;0.20;;;;;;;19.88;59.46;95471.25;5112234;28;20934;-57
2023/09/28 00:56:26;;;;;;;0.50;0.30;;;;;;;19.93;59.21;95462.19;5111866;28;20501;-57
2023/09/28 00:58:56;;;;;;;0.60;0.40;;;;;;;19.95;59.90;95458.06;5112687;28;20899;-57
2023/09/28 01:01:26;;;;;;;0.40;0.30;;;;;;;19.98;60.09;95457.44;5111554;28;20439;-58
2023/09/28 01:03:56;;;;;;;0.50;0.30;;;;;;;19.94;59.48;95447.63;5111672;28;20931;-57
2023/09/28 01:06:24;;;;;;;0.50;0.30;;;;;;;19.97;59.57;95449.66;5086063;28;20550;-57
2023/09/28 01:08:53;;;;;;;3.60;1.37;;;;;;;19.92;59.41;95458.72;5111684;28;20782;-57
2023/09/28 01:11:21;;;;;;;0.50;0.30;;;;;;;20.01;58.51;95454.06;5111390;28;20813;-58
2023/09/28 01:13:49;;;;;;;0.77;0.40;;;;;;;19.76;59.31;95452.28;5110777;28;20510;-58
2023/09/28 01:16:19;;;;;;;0.40;0.30;;;;;;;19.75;59.22;95452.63;5111699;28;20478;-59
2023/09/28 01:18:49;;;;;;;0.90;0.30;;;;;;;19.81;59.31;95452.09;5111807;28;20527;-58
2023/09/28 01:21:16;;;;;;;0.50;0.40;;;;;;;19.62;59.94;95443.66;5114544;28;20467;-58
2023/09/28 01:23:46;;;;;;;0.63;0.30;;;;;;;19.67;59.96;95442.69;5115226;28;20897;-56
2023/09/28 01:26:13;;;;;;;0.97;0.30;;;;;;;19.59;59.81;95444.31;5115822;28;20443;-58
2023/09/28 01:28:42;;;;;;;0.50;0.50;;;;;;;19.62;60.13;95449.03;5115421;28;20493;-58
2023/09/28 01:31:10;;;;;;;0.50;0.50;;;;;;;19.68;59.73;95447.75;5116032;28;20435;-58
2023/09/28 01:33:38;;;;;;;0.40;0.27;;;;;;;19.80;58.94;95455.13;5114314;28;20431;-58
2023/09/28 01:36:07;;;;;;;0.50;0.30;;;;;;;19.75;58.56;95458.81;5115664;28;20466;-58
2023/09/28 01:38:40;;;;;;;0.40;0.20;;;;;;;19.63;59.87;95456.00;5114887;28;20932;-58
2023/09/28 01:41:09;;;;;;;0.40;0.20;;;;;;;19.50;60.98;95459.69;5115417;28;20530;-57
2023/09/28 01:43:37;;;;;;;0.40;0.20;;;;;;;19.60;60.40;95460.13;5115348;28;20514;-58
2023/09/28 01:46:04;;;;;;;1.47;0.77;;;;;;;19.57;60.82;95452.72;5114724;28;20431;-58
2023/09/28 01:48:33;;;;;;;0.50;0.30;;;;;;;19.50;60.64;95454.31;5089048;28;20435;-57
2023/09/28 01:51:02;;;;;;;0.40;0.20;;;;;;;19.40;60.86;95458.16;5114962;28;21036;-57
2023/09/28 01:53:30;;;;;;;0.53;0.33;;;;;;;19.41;61.15;95456.22;5114691;28;20466;-57
2023/09/28 01:55:59;;;;;;;0.50;0.37;;;;;;;19.43;61.38;95457.47;5115463;28;20463;-57
2023/09/28 01:58:29;;;;;;;0.60;0.40;;;;;;;19.14;61.40;95418.97;5115055;28;20454;-57
2023/09/28 02:00:56;;;;;;;1.40;1.30;;;;;;;19.43;61.34;95459.41;5115368;28;20534;-57
2023/09/28 02:03:25;;;;;;;0.60;0.30;;;;;;;19.47;61.85;95457.63;5115241;28;20439;-57
2023/09/28 02:05:52;;;;;;;0.60;0.30;;;;;;;19.42;62.03;95455.91;5115363;28;20431;-57
2023/09/28 02:08:21;;;;;;;0.60;0.37;;;;;;;19.36;62.68;95448.31;5115338;28;20471;-57
2023/09/28 02:10:48;;;;;;;0.40;0.30;;;;;;;19.37;61.77;95456.09;5114975;28;20435;-57
2023/09/28 02:13:17;;;;;;;0.50;0.30;;;;;;;19.39;61.11;95451.19;5115393;28;20494;-57
2023/09/28 02:15:45;;;;;;;0.40;0.20;;;;;;;19.44;61.51;95459.06;5114692;28;20440;-57
2023/09/28 02:18:14;;;;;;;0.40;0.20;;;;;;;19.40;61.76;95460.03;5114907;27;20436;-57
2023/09/28 02:20:44;;;;;;;0.50;0.30;;;;;;;19.38;61.80;95462.28;5114909;28;20439;-57
2023/09/28 02:23:12;;;;;;;0.40;0.20;;;;;;;19.40;61.09;95465.41;5114965;28;20963;-57
2023/09/28 02:25:40;;;;;;;0.40;0.30;;;;;;;19.32;61.76;95458.13;5114757;28;20427;-57
2023/09/28 02:28:07;;;;;;;0.40;0.30;;;;;;;19.32;61.75;95464.31;5113952;28;21032;-57
2023/09/28 02:30:36;;;;;;;0.57;0.30;;;;;;;19.23;62.65;95460.03;5114411;27;20911;-57
2023/09/28 02:33:06;;;;;;;0.40;0.30;;;;;;;18.97;62.50;95454.75;5113740;28;20466;-57
2023/09/28 02:35:35;;;;;;;0.40;0.30;;;;;;;18.97;62.90;95460.09;5114716;28;20920;-57
2023/09/28 02:38:03;;;;;;;0.40;0.20;;;;;;;19.01;61.73;95467.22;5114867;28;20439;-57
2023/09/28 02:40:33;;;;;;;0.93;0.40;;;;;;;18.84;62.30;95426.16;5114292;28;20530;-57
2023/09/28 02:43:00;;;;;;;0.40;0.30;;;;;;;18.95;62.16;95449.66;5114073;28;20981;-57
2023/09/28 02:45:29;;;;;;;0.40;0.20;;;;;;;19.09;62.81;95462.94;5114844;28;20522;-57
2023/09/28 02:47:56;;;;;;;0.50;0.30;;;;;;;19.13;62.70;95473.81;5114045;28;20916;-57
2023/09/28 02:50:26;;;;;;;0.40;0.20;;;;;;;19.18;61.85;95473.63;5114185;28;20439;-57
2023/09/28 02:52:54;;;;;;;0.40;0.20;;;;;;;19.05;62.35;95453.91;5113745;28;20550;-57
2023/09/28 02:55:22;;;;;;;0.50;0.40;;;;;;;18.96;63.74;95474.63;5114179;27;20442;-57
2023/09/28 02:57:51;;;;;;;0.50;0.30;;;;;;;19.06;63.01;95484.25;5113294;28;21014;-57
2023/09/28 03:00:29;;;;;;;0.40;0.30;;;;;;;19.02;63.00;95484.13;5114244;28;20514;-57
2023/09/28 03:02:57;;;;;;;0.50;0.37;;;;;;;18.33;64.67;95473.34;5113763;28;20431;-57
2023/09/28 03:05:29;;;;;;;0.50;0.30;;;;;;;17.99;67.01;95473.25;5114195;28;20436;-57
2023/09/28 03:07:58;;;;;;;0.50;0.40;;;;;;;17.45;69.42;95474.47;5113840;28;20514;-56
2023/09/28 03:10:27;;;;;;;0.60;0.50;;;;;;;17.69;70.49;95484.84;5114008;28;20497;-56
2023/09/28 03:12:56;;;;;;;0.50;0.30;;;;;;;17.73;69.10;95483.13;5113856;28;20442;-57
2023/09/28 03:15:25;;;;;;;0.50;0.40;;;;;;;17.26;70.49;95414.94;5113109;28;20439;-57
2023/09/28 03:17:54;;;;;;;0.53;0.37;;;;;;;17.75;70.80;95467.53;5114150;28;20547;-56
2023/09/28 03:20:22;;;;;;;1.00;1.00;;;;;;;18.03;69.21;95471.56;5113354;28;21099;-56
2023/09/28 03:22:52;;;;;;;0.50;0.40;;;;;;;17.82;68.62;95475.88;5113861;28;20443;-57
2023/09/28 03:25:22;;;;;;;0.83;0.60;;;;;;;17.32;70.02;95472.66;5113510;28;20439;-57
2023/09/28 03:27:51;;;;;;;0.40;0.27;;;;;;;17.52;70.95;95474.00;5113402;28;20523;-57
2023/09/28 03:30:21;;;;;;;1.47;0.40;;;;;;;17.75;69.09;95470.19;5113352;27;20485;-56
2023/09/28 03:32:49;;;;;;;0.60;0.40;;;;;;;17.80;67.96;95467.38;5113755;28;20526;-56
2023/09/28 03:35:20;;;;;;;0.50;0.50;;;;;;;17.95;67.94;95468.84;5112856;28;20502;-57
2023/09/28 03:37:53;;;;;;;7.03;0.40;;;;;;;18.17;65.93;95466.84;5113625;28;20467;-56
2023/09/28 03:40:23;;;;;;;0.50;0.30;;;;;;;17.76;67.16;95469.88;5086544;28;20435;-56
2023/09/28 03:42:52;;;;;;;0.47;0.30;;;;;;;18.05;67.00;95476.59;5113354;28;20435;-57
2023/09/28 03:45:22;;;;;;;0.50;0.30;;;;;;;18.27;65.18;95469.22;5112720;28;20901;-57
2023/09/28 03:47:52;;;;;;;0.40;0.30;;;;;;;18.42;64.87;95474.13;5112309;28;20997;-56
2023/09/28 03:50:21;;;;;;;0.40;0.20;;;;;;;18.45;63.30;95471.91;5112630;27;20443;-57
2023/09/28 03:52:51;;;;;;;0.40;0.20;;;;;;;18.59;63.27;95472.59;5112155;28;20916;-57
2023/09/28 03:55:21;;;;;;;0.40;0.30;;;;;;;18.63;62.53;95478.91;5112732;28;20461;-56
2023/09/28 03:57:52;;;;;;;0.40;0.30;;;;;;;18.62;62.27;95485.41;5113169;28;20478;-57
2023/09/28 04:00:21;;;;;;;0.50;0.30;;;;;;;18.61;62.66;95475.75;5112731;28;20439;-56
2023/09/28 04:02:51;;;;;;;0.40;0.20;;;;;;;18.71;62.84;95478.13;5112400;28;20435;-56
2023/09/28 04:05:23;;;;;;;0.50;0.30;;;;;;;18.76;62.15;95478.75;5112718;28;20444;-56
2023/09/28 04:07:52;;;;;;;0.87;0.33;;;;;;;18.62;61.93;95466.59;5112151;27;20439;-55
2023/09/28 04:10:21;;;;;;;0.60;0.30;;;;;;;18.66;62.63;95480.97;5112199;28;20435;-56
2023/09/28 04:12:54;;;;;;;0.70;0.70;;;;;;;18.33;62.68;95435.78;5087293;28;20923;-56
2023/09/28 04:15:23;;;;;;;0.63;0.30;;;;;;;18.77;62.09;95485.69;5112258;28;20479;-57
2023/09/28 04:17:53;;;;;;;0.40;0.30;;;;;;;18.88;63.11;95489.66;5112942;28;20822;-56
2023/09/28 04:20:21;;;;;;;0.53;0.30;;;;;;;18.53;62.18;95487.28;5112207;28;20443;-55
2023/09/28 04:22:50;;;;;;;0.50;0.30;;;;;;;18.22;64.63;95498.88;5112307;28;20431;-56
2023/09/28 04:25:20;;;;;;;0.50;0.30;;;;;;;18.52;64.60;95494.53;5112136;28;20440;-56
2023/09/28 04:27:49;;;;;;;0.47;0.23;;;;;;;18.58;67.22;95492.47;5112443;28;20473;-56
2023/09/28 04:30:20;;;;;;;0.50;0.30;;;;;;;18.28;64.06;95504.91;5111839;28;20431;-56
2023/09/28 04:32:51;;;;;;;0.40;0.20;;;;;;;18.12;65.27;95455.47;5111834;28;20539;-56
2023/09/28 04:35:20;;;;;;;0.40;0.30;;;;;;;18.35;65.21;95505.22;5111656;28;20440;-56
2023/09/28 04:37:49;;;;;;;0.40;0.20;;;;;;;18.64;65.66;95508.16;5112030;28;20524;-57
2023/09/28 04:40:24;;;;;;;0.50;0.30;;;;;;;18.18;63.66;95491.78;5112371;28;20893;-57
2023/09/28 04:42:54;;;;;;;0.50;0.40;;;;;;;18.37;66.84;95511.06;5111490;28;20517;-57
2023/09/28 04:45:24;;;;;;;0.40;0.27;;;;;;;18.65;65.60;95507.03;5112413;28;20522;-58
2023/09/28 04:47:53;;;;;;;0.50;0.30;;;;;;;18.37;65.39;95521.78;5111761;28;20446;-58
2023/09/28 04:50:22;;;;;;;0.57;0.57;;;;;;;18.17;64.52;95517.81;5112145;28;20526;-58
2023/09/28 04:52:50;;;;;;;0.50;0.30;;;;;;;18.19;65.26;95520.19;5111346;28;20464;-59
2023/09/28 04:55:19;;;;;;;0.47;0.40;;;;;;;18.36;65.58;95520.22;5111497;28;20449;-59
2023/09/28 04:57:48;;;;;;;0.60;0.40;;;;;;;18.38;65.13;95516.13;5111315;28;20487;-59
2023/09/28 05:00:17;;;;;;;0.50;0.30;;;;;;;18.34;65.76;95517.84;5111921;28;20450;-59
2023/09/28 05:02:47;;;;;;;0.40;0.30;;;;;;;18.23;65.60;95521.94;5111737;28;20606;-59
2023/09/28 05:05:16;;;;;;;0.67;0.40;;;;;;;18.12;65.38;95525.19;5111511;28;20436;-59
2023/09/28 05:07:45;;;;;;;0.40;0.30;;;;;;;18.20;65.15;95522.56;5111163;28;20896;-59
2023/09/28 05:10:14;;;;;;;0.40;0.30;;;;;;;18.07;65.70;95504.69;5111864;28;20459;-59
2023/09/28 05:12:43;;;;;;;0.50;0.50;;;;;;;18.27;65.77;95535.50;5111594;28;20784;-59
2023/09/28 05:15:13;;;;;;;0.60;0.50;;;;;;;17.93;66.20;95527.34;5110964;28;20432;-59
2023/09/28 05:17:42;;;;;;;1.87;1.33;;;;;;;18.08;65.14;95529.63;5084581;28;20467;-60
2023/09/28 05:20:13;;;;;;;0.60;0.60;;;;;;;18.16;65.26;95526.19;5111159;28;20476;-60
2023/09/28 05:22:43;;;;;;;0.60;0.40;;;;;;;17.67;64.67;95482.47;5111611;28;20443;-60
2023/09/28 05:25:12;;;;;;;0.50;0.40;;;;;;;17.95;65.54;95534.00;5111197;28;21013;-60
2023/09/28 05:27:40;;;;;;;0.40;0.30;;;;;;;18.03;66.22;95530.56;5112058;28;20518;-60
2023/09/28 05:30:10;;;;;;;0.90;0.60;;;;;;;18.36;65.73;95530.97;5111979;28;20845;-60
2023/09/28 05:32:38;;;;;;;0.50;0.30;;;;;;;18.48;64.08;95536.53;5111240;28;20504;-60
2023/09/28 05:35:08;;;;;;;0.50;0.33;;;;;;;18.60;64.46;95538.59;5110967;28;20427;-60
2023/09/28 05:37:38;;;;;;;2.70;0.50;;;;;;;18.60;63.91;95528.66;5111289;28;20471;-60
2023/09/28 05:40:07;;;;;;;0.57;0.40;;;;;;;18.61;63.70;95526.75;5111511;28;20435;-59
2023/09/28 05:42:36;;;;;;;0.50;0.30;;;;;;;19.11;64.20;95527.06;5111319;28;20493;-59
2023/09/28 05:45:05;;;;;;;0.70;0.40;;;;;;;19.05;62.66;95528.38;5111128;28;20919;-59
2023/09/28 05:47:34;;;;;;;0.50;0.30;;;;;;;19.43;62.61;95522.00;5111750;28;20534;-59
2023/09/28 05:50:04;;;;;;;0.50;0.30;;;;;;;19.53;62.34;95520.91;5111598;28;20488;-59
2023/09/28 05:52:35;;;;;;;0.50;0.30;;;;;;;19.80;62.19;95517.00;5110954;28;20463;-60
2023/09/28 05:55:05;;;;;;;0.50;0.43;;;;;;;20.07;61.23;95517.34;5111743;28;20854;-60
2023/09/28 05:57:33;;;;;;;0.40;0.30;;;;;;;20.68;59.39;95496.28;5111334;28;20516;-60
2023/09/28 06:00:09;;;;;;;0.80;0.40;;;;;;;20.94;58.58;95523.00;5111609;28;20464;-58
2023/09/28 06:02:38;;;;;;;0.63;0.40;;;;;;;21.28;57.87;95518.13;5111373;28;20435;-58
2023/09/28 06:05:08;;;;;;;0.60;0.50;;;;;;;21.84;56.45;95518.50;5110965;28;20459;-58
2023/09/28 06:07:37;;;;;;;0.97;0.53;;;;;;;22.09;55.03;95512.81;5112962;28;20435;-57
2023/09/28 06:10:08;;;;;;;0.40;0.30;;;;;;;22.18;54.97;95520.03;5115032;28;20439;-55
2023/09/28 06:12:37;;;;;;;0.50;0.40;;;;;;;22.57;54.72;95513.91;5114801;28;20896;-56
2023/09/28 06:15:07;;;;;;;0.60;0.30;;;;;;;23.12;53.83;95518.66;5114824;28;20450;-56
2023/09/28 06:17:37;;;;;;;0.40;0.30;;;;;;;23.11;52.47;95512.47;5114804;28;20492;-56
2023/09/28 06:20:08;;;;;;;0.40;0.30;;;;;;;23.79;52.76;95509.66;5114743;28;20504;-56
2023/09/28 06:22:36;;;;;;;0.40;0.30;;;;;;;24.07;51.12;95510.38;5114849;28;20450;-56
2023/09/28 06:25:09;;;;;;;0.40;0.30;;;;;;;24.11;50.82;95507.81;5114229;28;20427;-55
2023/09/28 06:27:39;;;;;;;0.40;0.30;;;;;;;23.93;49.91;95518.94;5114866;28;20471;-55
2023/09/28 06:30:09;;;;;;;1.63;0.40;;;;;;;24.05;49.47;95509.16;5114137;28;21002;-55
2023/09/28 06:32:37;;;;;;;0.40;0.30;;;;;;;24.53;49.05;95515.00;5114672;28;20439;-55
2023/09/28 06:35:08;;;;;;;0.50;0.40;;;;;;;24.71;47.99;95520.81;5114333;28;20438;-56
2023/09/28 06:37:37;;;;;;;0.50;0.37;;;;;;;25.27;47.29;95503.03;5114464;28;20443;-56
2023/09/28 06:40:07;;;;;;;0.60;0.40;;;;;;;26.02;46.75;95512.56;5113860;28;20427;-56
2023/09/28 06:42:37;;;;;;;0.43;0.30;;;;;;;25.97;45.41;95510.16;5113886;28;20443;-56
2023/09/28 06:45:09;;;;;;;0.40;0.30;;;;;;;26.06;45.87;95511.47;5108608;27;20446;-56
2023/09/28 06:47:38;;;;;;;0.40;0.30;;;;;;;26.37;44.69;95488.72;5099145;28;20492;-56
2023/09/28 06:50:29;;;;;;;0.50;0.30;;;;;;;26.32;43.78;95517.00;5114036;28;20462;-57
2023/09/28 06:52:57;;;;;;;0.57;0.30;;;;;;;26.85;43.65;95511.56;5113901;28;20836;-57
2023/09/28 06:55:26;;;;;;;0.40;0.30;;;;;;;26.92;44.02;95509.72;5113884;28;20463;-57
2023/09/28 06:57:56;;;;;;;0.40;0.30;;;;;;;26.48;44.33;95520.34;5113952;28;21083;-57
2023/09/28 07:00:24;;;;;;;1.23;0.50;;;;;;;26.81;43.10;95510.75;5114193;28;20443;-57
2023/09/28 07:02:55;;;;;;;0.50;0.33;;;;;;;26.79;42.74;95524.69;5114149;28;20492;-56
2023/09/28 07:05:23;;;;;;;0.43;0.27;;;;;;;26.62;43.63;95508.91;5114103;28;20439;-56
2023/09/28 07:07:52;;;;;;;0.40;0.30;;;;;;;27.01;42.82;95520.34;5114017;28;20431;-56
2023/09/28 07:10:21;;;;;;;0.40;0.30;;;;;;;27.04;42.42;95533.22;5113651;27;21016;-55
2023/09/28 07:12:49;;;;;;;0.40;0.40;;;;;;;27.20;41.92;95527.59;5113787;28;20446;-55
2023/09/28 07:15:19;;;;;;;0.40;0.33;;;;;;;27.27;41.36;95528.47;5113361;28;20450;-55
2023/09/28 07:17:48;;;;;;;0.87;0.87;;;;;;;27.60;41.02;95527.72;5113681;28;20540;-56
2023/09/28 07:20:16;;;;;;;0.93;0.93;;;;;;;28.13;41.40;95525.53;5112932;28;20503;-55
2023/09/28 07:22:45;;;;;;;0.40;0.30;;;;;;;28.06;41.41;95523.53;5113209;28;20439;-56
2023/09/28 07:25:14;;;;;;;0.80;0.70;;;;;;;27.96;41.47;95521.44;5112167;28;20438;-56
2023/09/28 07:27:45;;;;;;;0.50;0.40;;;;;;;28.42;39.54;95518.38;5113609;28;20489;-55
2023/09/28 07:30:15;;;;;;;0.40;0.37;;;;;;;28.88;40.59;95527.69;5113167;28;20786;-55
2023/09/28 07:32:45;;;;;;;0.30;0.30;;;;;;;29.18;38.95;95525.50;5112562;28;20435;-55
2023/09/28 07:35:14;;;;;;;0.70;0.30;;;;;;;29.05;38.60;95527.00;5112863;28;20468;-55
2023/09/28 07:37:43;;;;;;;5.23;0.47;;;;;;;29.51;37.83;95481.56;5112787;28;20439;-55
2023/09/28 07:40:15;;;;;;;0.30;0.30;;;;;;;29.61;38.14;95512.81;5112146;28;20937;-55
2023/09/28 07:42:48;;;;;;;0.40;0.30;;;;;;;30.06;36.76;95479.34;5113142;28;20474;-55
2023/09/28 07:45:18;;;;;;;0.40;0.40;;;;;;;29.95;36.74;95527.78;5087011;28;20439;-56
2023/09/28 07:47:51;;;;;;;0.50;0.37;;;;;;;30.04;37.94;95514.50;5112533;28;20457;-55
2023/09/28 07:50:19;;;;;;;0.40;0.30;;;;;;;30.13;36.54;95509.41;5113050;28;20447;-48
2023/09/28 07:52:48;;;;;;;0.90;0.43;;;;;;;30.00;37.31;95456.31;5112242;27;20467;-48
2023/09/28 07:55:17;;;;;;;0.40;0.30;;;;;;;30.54;36.72;95511.78;5113173;28;20488;-47
2023/09/28 07:57:46;;;;;;;0.30;0.20;;;;;;;31.15;36.93;95519.53;5112634;28;20431;-47
2023/09/28 08:00:27;;;;;;;0.47;0.30;;;;;;;30.35;35.27;95507.50;5100909;28;20574;-54
2023/09/28 08:02:57;;;;;;;0.40;0.30;;;;;;;31.05;35.62;95505.84;5111363;28;20431;-54
2023/09/28 08:05:26;;;;;;;0.40;0.30;;;;;;;30.48;36.10;95496.97;5113189;27;20439;-54
2023/09/28 08:07:54;;;;;;;0.70;0.50;;;;;;;30.77;35.08;95488.31;5113163;28;20466;-55
2023/09/28 08:10:42;;;;;;;0.40;0.30;;;;;;;31.40;34.73;95497.50;5112335;28;20987;-55
2023/09/28 08:13:11;;;;;;;0.40;0.37;;;;;;;30.32;36.53;95496.53;5112670;28;20500;-55
2023/09/28 08:15:43;;;;;;;0.40;0.30;;;;;;;31.39;35.10;95482.25;5112004;28;20504;-55
2023/09/28 08:18:13;;;;;;;0.70;0.40;;;;;;;30.52;35.62;95484.84;5111587;28;20454;-56
2023/09/28 08:20:43;;;;;;;3.50;3.23;;;;;;;31.02;36.34;95501.94;5111923;28;21014;-55
2023/09/28 08:23:32;;;;;;;0.50;0.40;;;;;;;31.52;35.37;95486.16;5112383;28;20435;-55
2023/09/28 08:26:00;;;;;;;0.30;0.30;;;;;;;32.10;34.25;95499.13;5112115;28;20434;-55
2023/09/28 08:28:29;;;;;;;4.73;0.60;;;;;;;31.88;34.03;95481.22;5112377;28;20533;-55
2023/09/28 08:31:04;;;;;;;0.40;0.40;;;;;;;32.42;33.67;95488.69;5112290;28;20903;-55
2023/09/28 08:33:34;;;;;;;0.53;0.50;;;;;;;32.69;34.38;95479.84;5112059;28;20445;-55
2023/09/28 08:36:02;;;;;;;0.40;0.30;;;;;;;32.92;32.77;95471.72;5112560;28;20446;-55
2023/09/28 08:38:31;;;;;;;0.40;0.30;;;;;;;33.05;32.59;95472.81;5111853;28;20434;-55
2023/09/28 08:41:00;;;;;;;0.40;0.30;;;;;;;32.61;33.31;95468.91;5100299;28;20475;-56
2023/09/28 08:43:33;;;;;;;0.50;0.43;;;;;;;32.33;32.69;95414.31;5111286;28;20430;-56
2023/09/28 08:46:02;;;;;;;1.30;0.37;;;;;;;32.55;32.24;95429.38;5112368;28;20438;-56
2023/09/28 08:48:31;;;;;;;3.90;0.40;;;;;;;33.22;31.51;95463.56;5112244;28;20449;-56
2023/09/28 08:51:08;;;;;;;0.30;0.20;;;;;;;33.51;32.25;95412.53;5111402;28;20439;-56
2023/09/28 08:53:38;;;;;;;0.40;0.33;;;;;;;34.38;31.12;95428.13;5111824;28;20466;-56
2023/09/28 08:56:07;;;;;;;0.40;0.30;;;;;;;34.16;31.84;95452.47;5112087;28;20824;-51
2023/09/28 08:58:37;;;;;;;0.30;0.20;;;;;;;34.16;30.88;95426.91;5112003;28;20530;-50
2023/09/28 09:01:08;;;;;;;0.40;0.30;;;;;;;34.50;30.07;95408.25;5111006;28;20481;-51
2023/09/28 09:03:38;;;;;;;0.57;0.40;;;;;;;34.56;29.80;95458.13;5111899;28;20443;-51
2023/09/28 09:06:11;;;;;;;0.40;0.40;;;;;;;34.24;30.77;95453.13;5106373;28;20447;-50
2023/09/28 09:08:46;;;;;;;0.40;0.30;;;;;;;35.14;29.69;95449.19;5105191;28;20442;-50
2023/09/28 09:11:17;;;;;;;0.40;0.30;;;;;;;34.88;31.34;95455.56;5087033;28;20469;-50
2023/09/28 09:13:53;;;;;;;0.47;0.43;;;;;;;35.56;29.71;95450.28;5111569;28;20526;-50
2023/09/28 09:16:25;;;;;;;2.10;0.40;;;;;;;34.76;30.28;95401.88;5111022;28;20525;-50
2023/09/28 09:18:56;;;;;;;0.40;0.30;;;;;;;35.18;31.03;95440.81;5112044;28;20196;-50
2023/09/28 09:21:39;;;;;;;0.93;0.30;;;;;;;34.58;29.96;95444.72;5111561;28;20265;-49
2023/09/28 09:24:10;;;;;;;1.07;0.33;;;;;;;35.35;29.46;95434.16;5111309;28;20563;-49
2023/09/28 09:26:40;;;;;;;0.50;0.40;;;;;;;35.26;29.40;95445.00;5111662;28;20683;-49
2023/09/28 09:29:10;;;;;;;0.90;0.40;;;;;;;34.57;30.32;95441.19;5111268;28;20192;-50
2023/09/28 09:31:40;;;;;;;0.30;0.30;;;;;;;34.80;30.48;95456.88;5111643;28;20295;-49
2023/09/28 09:34:12;;;;;;;0.40;0.30;;;;;;;34.22;29.84;95444.50;5111370;28;20196;-50
2023/09/28 09:36:42;;;;;;;0.40;0.30;;;;;;;35.07;29.15;95443.78;5111755;28;20193;-50
2023/09/28 09:39:22;;;;;;;0.30;0.27;;;;;;;35.62;30.07;95440.31;5111432;28;20453;-49
2023/09/28 09:41:51;;;;;;;0.63;0.50;;;;;;;36.72;28.12;95399.78;5111123;28;20193;-50
2023/09/28 09:44:21;;;;;;;0.40;0.40;;;;;;;35.87;27.90;95429.50;5115319;28;20193;-51
2023/09/28 09:46:51;;;;;;;0.30;0.23;;;;;;;36.98;26.92;95431.06;5115129;28;20665;-51
2023/09/28 09:49:21;;;;;;;0.30;0.20;;;;;;;37.23;27.19;95420.84;5115037;28;20204;-51
2023/09/28 09:51:51;;;;;;;5.60;0.30;;;;;;;35.80;28.20;95426.13;5115088;28;20235;-58
2023/09/28 09:54:22;;;;;;;1.00;0.60;;;;;;;36.38;27.85;95429.84;5114802;28;20284;-58
2023/09/28 09:56:52;;;;;;;0.40;0.30;;;;;;;34.52;28.70;95396.81;5115634;28;20193;-56
2023/09/28 09:59:22;;;;;;;0.70;0.53;;;;;;;34.72;29.64;95428.69;5114733;28;20232;-57
2023/09/28 10:01:53;;;;;;;0.33;0.27;;;;;;;34.35;29.86;95423.47;5114316;28;20258;-57
2023/09/28 10:04:26;;;;;;;0.30;0.30;;;;;;;34.15;32.44;95434.41;5114180;28;20351;-56
2023/09/28 10:07:00;;;;;;;0.30;0.20;;;;;;;33.32;32.65;95437.91;5115078;28;20641;-56
2023/09/28 10:09:28;;;;;;;0.40;0.30;;;;;;;31.69;32.18;95435.16;5114605;28;20196;-56
2023/09/28 10:11:59;;;;;;;0.50;0.40;;;;;;;30.72;33.50;95427.72;5115249;28;20783;-56
2023/09/28 10:14:28;;;;;;;0.40;0.30;;;;;;;30.69;34.10;95436.72;5089513;28;20449;-56
2023/09/28 10:16:57;;;;;;;0.40;0.30;;;;;;;30.10;34.36;95441.88;5113916;28;20445;-57
2023/09/28 10:19:27;;;;;;;0.40;0.30;;;;;;;29.13;35.01;95381.19;5114261;28;20439;-57
2023/09/28 10:21:57;;;;;;;0.50;0.40;;;;;;;29.20;35.56;95451.44;5114326;28;20470;-58
2023/09/28 10:24:31;;;;;;;0.40;0.30;;;;;;;29.57;35.89;95441.78;5115098;28;20488;-58
2023/09/28 10:27:09;;;;;;;0.70;0.57;;;;;;;28.83;36.04;95425.16;5114139;28;20496;-58
2023/09/28 10:29:40;;;;;;;0.70;0.60;;;;;;;29.01;36.65;95436.13;5114438;28;20485;-58
2023/09/28 10:32:15;;;;;;;0.40;0.30;;;;;;;29.11;37.43;95429.94;5114452;28;20461;-57
2023/09/28 10:34:45;;;;;;;0.57;0.50;;;;;;;28.77;36.61;95443.03;5114278;28;20522;-58
2023/09/28 10:37:21;;;;;;;0.80;0.50;;;;;;;28.56;37.68;95440.19;5088489;28;20439;-59
2023/09/28 10:39:52;;;;;;;0.40;0.30;;;;;;;28.11;38.65;95402.47;5113890;28;20434;-59
2023/09/28 10:42:22;;;;;;;0.40;0.30;;;;;;;28.32;38.76;95432.63;5114422;28;20442;-59
2023/09/28 10:44:51;;;;;;;0.90;0.40;;;;;;;28.06;38.80;95413.72;5114463;28;20446;-59
2023/09/28 10:47:21;;;;;;;0.87;0.87;;;;;;;28.04;39.95;95435.13;5114846;28;20439;-58
2023/09/28 10:49:58;;;;;;;0.93;0.30;;;;;;;28.16;39.45;95426.66;5114476;28;20443;-58
2023/09/28 10:52:29;;;;;;;0.70;0.63;;;;;;;27.30;38.08;95361.69;5113748;28;20478;-58
2023/09/28 10:55:03;;;;;;;0.40;0.30;;;;;;;27.93;38.47;95436.97;5087387;28;20442;-56
2023/09/28 10:57:32;;;;;;;0.50;0.47;;;;;;;27.85;38.41;95441.59;5113570;28;20523;-57
2023/09/28 11:00:02;;;;;;;0.40;0.30;;;;;;;27.73;38.99;95437.19;5113207;28;20936;-57
2023/09/28 11:02:37;;;;;;;0.37;0.20;;;;;;;27.26;39.63;95363.59;5113922;28;20438;-56
2023/09/28 11:05:09;;;;;;;0.70;0.50;;;;;;;28.11;38.33;95451.53;5113682;28;20966;-55
2023/09/28 11:08:00;;;;;;;0.30;0.20;;;;;;;28.07;39.53;95443.34;5113569;28;20480;-56
2023/09/28 11:10:31;;;;;;;0.50;0.40;;;;;;;27.80;40.47;95438.41;5113027;28;20865;-55
2023/09/28 11:13:17;;;;;;;0.40;0.30;;;;;;;27.79;39.18;95439.56;5108442;28;20434;-55
2023/09/28 11:15:46;;;;;;;0.40;0.30;;;;;;;27.51;39.36;95442.81;5113590;28;20447;-56
2023/09/28 11:18:15;;;;;;;0.40;0.30;;;;;;;26.97;40.17;95444.13;5101100;28;20432;-56
2023/09/28 11:20:44;;;;;;;0.53;0.53;;;;;;;27.09;40.09;95443.91;5112874;28;20463;-56
2023/09/28 11:23:14;;;;;;;4.10;0.37;;;;;;;27.19;40.64;95444.38;5113714;28;20958;-56
2023/09/28 11:25:43;;;;;;;0.50;0.40;;;;;;;26.89;41.02;95437.03;5087233;28;20435;-55
2023/09/28 11:28:17;;;;;;;0.83;0.57;;;;;;;26.97;40.88;95451.50;5112629;28;20440;-56
2023/09/28 11:30:46;;;;;;;0.50;0.30;;;;;;;26.32;41.16;95400.13;5113870;28;20451;-55
2023/09/28 11:33:14;;;;;;;3.60;0.43;;;;;;;26.76;40.85;95446.59;5113171;28;20474;-55
2023/09/28 11:35:43;;;;;;;0.77;0.40;;;;;;;26.80;40.78;95452.06;5113183;28;20565;-54
2023/09/28 11:38:12;;;;;;;0.40;0.30;;;;;;;27.10;40.12;95450.88;5112711;28;20439;-55
2023/09/28 11:40:42;;;;;;;0.40;0.30;;;;;;;27.00;40.30;95418.09;5112632;28;20843;-54
2023/09/28 11:43:11;;;;;;;0.30;0.30;;;;;;;27.38;39.99;95453.13;5113117;28;20432;-55
2023/09/28 11:45:40;;;;;;;0.40;0.20;;;;;;;27.26;40.27;95453.41;5112684;28;20446;-56
2023/09/28 11:48:10;;;;;;;0.40;0.30;;;;;;;27.07;40.50;95453.56;5111975;28;20435;-55